sensor_id;sensor_type;location;lat;lon;timestamp;temperature;humidity
19728;DHT22;10015;52.530;13.390;2022-12-11T06:34:13;1.30;99.90
19728;DHT22;10015;52.530;13.390;2022-12-11T06:36:39;1.30;99.90
19728;DHT22;10015;52.530;13.390;2022-12-11T06:39:05;1.20;99.90
19728;DHT22;10015;52.530;13.390;2022-12-11T06:41:31;1.10;99.90
19728;DHT22;10015;52.530;13.390;2022-12-11T06:43:57;1.20;99.90
19728;DHT22;10015;52.530;13.390;2022-12-11T06:46:23;1.10;99.90
19728;DHT22;10015;52.530;13.390;2022-12-11T06:48:50;1.00;99.90
19728;DHT22;10015;52.530;13.390;2022-12-11T06:51:18;1.00;99.90
19728;DHT22;10015;52.530;13.390;2022-12-11T06:53:53;1.00;99.90
19728;DHT22;10015;52.530;13.390;2022-12-11T06:56:19;0.90;99.90
19728;DHT22;10015;52.530;13.390;2022-12-11T06:58:46;0.90;99.90
19728;DHT22;10015;52.530;13.390;2022-12-11T07:01:23;0.90;99.90
19728;DHT22;10015;52.530;13.390;2022-12-11T07:03:52;0.80;99.90
19728;DHT22;10015;52.530;13.390;2022-12-11T07:06:19;0.70;99.90
19728;DHT22;10015;52.530;13.390;2022-12-11T07:08:45;0.70;99.90
19728;DHT22;10015;52.530;13.390;2022-12-11T07:11:13;0.80;99.90
19728;DHT22;10015;52.530;13.390;2022-12-11T07:13:39;1.00;99.90
19728;DHT22;10015;52.530;13.390;2022-12-11T07:16:07;1.00;99.90
19728;DHT22;10015;52.530;13.390;2022-12-11T07:18:37;1.00;99.90
19728;DHT22;10015;52.530;13.390;2022-12-11T07:21:05;1.10;99.90
19728;DHT22;10015;52.530;13.390;2022-12-11T07:23:32;1.10;99.90
19728;DHT22;10015;52.530;13.390;2022-12-11T07:25:58;1.10;99.90
19728;DHT22;10015;52.530;13.390;2022-12-11T07:28:24;1.10;99.90
19728;DHT22;10015;52.530;13.390;2022-12-11T07:30:50;1.10;99.90
19728;DHT22;10015;52.530;13.390;2022-12-11T07:33:16;1.10;99.90
19728;DHT22;10015;52.530;13.390;2022-12-11T07:35:42;0.90;99.90
19728;DHT22;10015;52.530;13.390;2022-12-11T07:38:08;0.90;99.90
19728;DHT22;10015;52.530;13.390;2022-12-11T07:40:34;0.90;99.90
19728;DHT22;10015;52.530;13.390;2022-12-11T07:43:01;0.90;99.90
19728;DHT22;10015;52.530;13.390;2022-12-11T07:45:27;0.80;99.90
19728;DHT22;10015;52.530;13.390;2022-12-11T07:47:54;0.60;99.90
19728;DHT22;10015;52.530;13.390;2022-12-11T07:50:19;0.50;99.90
19728;DHT22;10015;52.530;13.390;2022-12-11T07:52:45;0.50;99.90
19728;DHT22;10015;52.530;13.390;2022-12-11T07:55:11;0.50;99.90
19728;DHT22;10015;52.530;13.390;2022-12-11T07:57:38;0.50;99.90
19728;DHT22;10015;52.530;13.390;2022-12-11T08:00:04;0.40;99.90
19728;DHT22;10015;52.530;13.390;2022-12-11T08:02:38;0.50;99.90
19728;DHT22;10015;52.530;13.390;2022-12-11T08:05:04;0.50;99.90
19728;DHT22;10015;52.530;13.390;2022-12-11T08:07:32;0.50;99.90
19728;DHT22;10015;52.530;13.390;2022-12-11T08:09:58;0.60;99.90
19728;DHT22;10015;52.530;13.390;2022-12-11T08:12:24;0.70;99.90
19728;DHT22;10015;52.530;13.390;2022-12-11T08:14:50;0.70;99.90
19728;DHT22;10015;52.530;13.390;2022-12-11T08:17:16;2.10;99.90
19728;DHT22;10015;52.530;13.390;2022-12-11T08:19:42;1.80;99.90
19728;DHT22;10015;52.530;13.390;2022-12-11T08:22:08;1.70;99.90
19728;DHT22;10015;52.530;13.390;2022-12-11T08:24:34;1.60;99.90
19728;DHT22;10015;52.530;13.390;2022-12-11T08:27:00;1.50;99.90
19728;DHT22;10015;52.530;13.390;2022-12-11T08:29:26;1.30;99.90
19728;DHT22;10015;52.530;13.390;2022-12-11T08:31:52;1.20;99.90
19728;DHT22;10015;52.530;13.390;2022-12-11T08:34:18;1.20;99.90
19728;DHT22;10015;52.530;13.390;2022-12-11T08:36:44;1.00;99.90
19728;DHT22;10015;52.530;13.390;2022-12-11T08:39:10;0.90;99.90
19728;DHT22;10015;52.530;13.390;2022-12-11T08:41:36;0.70;99.90
19728;DHT22;10015;52.530;13.390;2022-12-11T08:44:02;0.60;99.90
19728;DHT22;10015;52.530;13.390;2022-12-11T08:46:30;0.60;99.90
19728;DHT22;10015;52.530;13.390;2022-12-11T08:48:57;0.60;99.90
19728;DHT22;10015;52.530;13.390;2022-12-11T08:51:26;0.70;99.90
19728;DHT22;10015;52.530;13.390;2022-12-11T08:53:57;0.80;99.90
19728;DHT22;10015;52.530;13.390;2022-12-11T08:56:24;0.90;99.90
19728;DHT22;10015;52.530;13.390;2022-12-11T08:58:51;0.80;99.90
19728;DHT22;10015;52.530;13.390;2022-12-11T09:01:23;0.80;99.90
19728;DHT22;10015;52.530;13.390;2022-12-11T09:03:51;0.80;99.90
19728;DHT22;10015;52.530;13.390;2022-12-11T09:06:20;0.80;99.90
19728;DHT22;10015;52.530;13.390;2022-12-11T09:08:47;0.90;99.90
19728;DHT22;10015;52.530;13.390;2022-12-11T09:11:16;1.00;99.90
19728;DHT22;10015;52.530;13.390;2022-12-11T09:13:43;1.00;99.90
19728;DHT22;10015;52.530;13.390;2022-12-11T09:16:14;1.10;99.90
19728;DHT22;10015;52.530;13.390;2022-12-11T09:18:41;1.00;99.90
19728;DHT22;10015;52.530;13.390;2022-12-11T09:21:09;1.00;99.90
19728;DHT22;10015;52.530;13.390;2022-12-11T09:23:36;1.10;99.90
19728;DHT22;10015;52.530;13.390;2022-12-11T09:26:06;1.10;99.90
19728;DHT22;10015;52.530;13.390;2022-12-11T09:28:33;1.20;99.90
19728;DHT22;10015;52.530;13.390;2022-12-11T09:30:59;1.20;99.90
19728;DHT22;10015;52.530;13.390;2022-12-11T09:33:27;1.20;99.90
19728;DHT22;10015;52.530;13.390;2022-12-11T09:36:00;1.30;99.90
19728;DHT22;10015;52.530;13.390;2022-12-11T09:38:27;1.30;99.90
19728;DHT22;10015;52.530;13.390;2022-12-11T09:40:54;1.30;99.90
19728;DHT22;10015;52.530;13.390;2022-12-11T09:43:40;1.30;99.90
19728;DHT22;10015;52.530;13.390;2022-12-11T09:46:10;1.30;99.90
19728;DHT22;10015;52.530;13.390;2022-12-11T09:48:39;1.30;99.90
19728;DHT22;10015;52.530;13.390;2022-12-11T09:51:28;1.30;99.90
19728;DHT22;10015;52.530;13.390;2022-12-11T09:53:59;1.20;99.90
19728;DHT22;10015;52.530;13.390;2022-12-11T10:16:28;1.80;99.90
19728;DHT22;10015;52.530;13.390;2022-12-11T10:18:58;1.70;99.90
19728;DHT22;10015;52.530;13.390;2022-12-11T10:21:24;1.30;99.90
19728;DHT22;10015;52.530;13.390;2022-12-11T10:23:58;1.10;99.90
19728;DHT22;10015;52.530;13.390;2022-12-11T10:26:28;1.10;99.90
19728;DHT22;10015;52.530;13.390;2022-12-11T10:28:58;1.20;99.90
19728;DHT22;10015;52.530;13.390;2022-12-11T10:31:35;1.20;99.90
19728;DHT22;10015;52.530;13.390;2022-12-11T10:34:11;1.20;99.90
19728;DHT22;10015;52.530;13.390;2022-12-11T10:36:40;1.20;99.90
19728;DHT22;10015;52.530;13.390;2022-12-11T10:39:24;1.20;99.90
19728;DHT22;10015;52.530;13.390;2022-12-11T10:41:52;1.20;99.90
19728;DHT22;10015;52.530;13.390;2022-12-11T10:44:21;1.20;99.90
19728;DHT22;10015;52.530;13.390;2022-12-11T10:47:00;1.30;99.90
19728;DHT22;10015;52.530;13.390;2022-12-11T10:49:30;1.40;99.90
19728;DHT22;10015;52.530;13.390;2022-12-11T10:51:56;1.60;99.90
19728;DHT22;10015;52.530;13.390;2022-12-11T10:56:58;1.60;99.90
19728;DHT22;10015;52.530;13.390;2022-12-11T11:04:48;1.70;99.90
19728;DHT22;10015;52.530;13.390;2022-12-11T11:07:36;1.70;99.90
19728;DHT22;10015;52.530;13.390;2022-12-11T11:10:15;1.70;99.90
19728;DHT22;10015;52.530;13.390;2022-12-11T11:12:45;1.70;99.90
19728;DHT22;10015;52.530;13.390;2022-12-11T11:17:49;1.60;99.90
19728;DHT22;10015;52.530;13.390;2022-12-11T11:20:21;1.60;99.90
19728;DHT22;10015;52.530;13.390;2022-12-11T11:23:02;1.60;99.90
19728;DHT22;10015;52.530;13.390;2022-12-11T11:25:32;1.70;99.90
19728;DHT22;10015;52.530;13.390;2022-12-11T11:28:02;1.70;99.90
19728;DHT22;10015;52.530;13.390;2022-12-11T11:30:39;1.70;99.90
19728;DHT22;10015;52.530;13.390;2022-12-11T11:33:16;1.70;99.90
19728;DHT22;10015;52.530;13.390;2022-12-11T11:35:53;1.70;99.90
19728;DHT22;10015;52.530;13.390;2022-12-11T11:38:36;1.70;99.90
19728;DHT22;10015;52.530;13.390;2022-12-11T11:41:26;1.70;99.90
19728;DHT22;10015;52.530;13.390;2022-12-11T11:43:57;1.60;99.90
19728;DHT22;10015;52.530;13.390;2022-12-11T11:46:41;1.60;99.90
19728;DHT22;10015;52.530;13.390;2022-12-11T12:00:26;1.60;99.90
19728;DHT22;10015;52.530;13.390;2022-12-11T12:03:16;1.50;99.90
19728;DHT22;10015;52.530;13.390;2022-12-11T12:05:54;1.50;99.90
19728;DHT22;10015;52.530;13.390;2022-12-11T12:11:39;1.50;99.90
19728;DHT22;10015;52.530;13.390;2022-12-11T12:25:27;1.80;99.90
19728;DHT22;10015;52.530;13.390;2022-12-11T12:31:23;1.60;99.90
19728;DHT22;10015;52.530;13.390;2022-12-11T12:47:18;1.60;99.90
19728;DHT22;10015;52.530;13.390;2022-12-11T12:49:47;1.70;99.90
19728;DHT22;10015;52.530;13.390;2022-12-11T12:52:37;1.70;99.90
19728;DHT22;10015;52.530;13.390;2022-12-11T12:55:19;1.80;99.90
19728;DHT22;10015;52.530;13.390;2022-12-11T12:58:05;1.60;99.90
19728;DHT22;10015;52.530;13.390;2022-12-11T13:00:35;1.60;99.90
19728;DHT22;10015;52.530;13.390;2022-12-11T13:03:19;1.60;99.90
19728;DHT22;10015;52.530;13.390;2022-12-11T13:06:03;1.60;99.90
19728;DHT22;10015;52.530;13.390;2022-12-11T13:08:45;1.60;99.90
19728;DHT22;10015;52.530;13.390;2022-12-11T13:11:14;1.60;99.90
19728;DHT22;10015;52.530;13.390;2022-12-11T13:18:50;1.70;99.90
19728;DHT22;10015;52.530;13.390;2022-12-11T13:23:52;1.70;99.90
19728;DHT22;10015;52.530;13.390;2022-12-11T13:26:30;1.80;99.90
19728;DHT22;10015;52.530;13.390;2022-12-11T13:28:56;1.70;99.90
19728;DHT22;10015;52.530;13.390;2022-12-11T13:31:33;1.80;99.90
19728;DHT22;10015;52.530;13.390;2022-12-11T13:34:16;1.70;99.90
19728;DHT22;10015;52.530;13.390;2022-12-11T13:36:48;1.70;99.90
19728;DHT22;10015;52.530;13.390;2022-12-11T13:42:04;1.50;99.90
19728;DHT22;10015;52.530;13.390;2022-12-11T13:44:39;1.40;99.90
19728;DHT22;10015;52.530;13.390;2022-12-11T13:47:13;1.40;99.90
19728;DHT22;10015;52.530;13.390;2022-12-11T13:49:42;1.50;99.90
19728;DHT22;10015;52.530;13.390;2022-12-11T13:52:23;1.50;99.90
19728;DHT22;10015;52.530;13.390;2022-12-11T13:54:55;1.60;99.90
19728;DHT22;10015;52.530;13.390;2022-12-11T13:57:25;1.60;99.90
19728;DHT22;10015;52.530;13.390;2022-12-11T13:59:55;1.70;99.90
19728;DHT22;10015;52.530;13.390;2022-12-11T14:02:24;1.70;99.90
19728;DHT22;10015;52.530;13.390;2022-12-11T14:04:56;1.60;99.90
19728;DHT22;10015;52.530;13.390;2022-12-11T14:07:33;1.60;99.90
19728;DHT22;10015;52.530;13.390;2022-12-11T14:10:12;1.60;99.90
19728;DHT22;10015;52.530;13.390;2022-12-11T14:13:12;1.70;99.90
19728;DHT22;10015;52.530;13.390;2022-12-11T14:15:43;1.70;99.90
19728;DHT22;10015;52.530;13.390;2022-12-11T14:18:25;1.70;99.90
19728;DHT22;10015;52.530;13.390;2022-12-11T14:20:55;1.70;99.90
19728;DHT22;10015;52.530;13.390;2022-12-11T14:23:29;1.80;99.90
19728;DHT22;10015;52.530;13.390;2022-12-11T14:26:16;1.70;99.90
19728;DHT22;10015;52.530;13.390;2022-12-11T14:28:43;1.60;99.90
19728;DHT22;10015;52.530;13.390;2022-12-11T14:31:15;1.60;99.90
19728;DHT22;10015;52.530;13.390;2022-12-11T14:33:52;1.50;99.90
19728;DHT22;10015;52.530;13.390;2022-12-11T14:36:21;1.50;99.90
19728;DHT22;10015;52.530;13.390;2022-12-11T14:39:12;1.60;99.90
19728;DHT22;10015;52.530;13.390;2022-12-11T14:42:09;1.60;99.90
19728;DHT22;10015;52.530;13.390;2022-12-11T14:44:52;1.50;99.90
19728;DHT22;10015;52.530;13.390;2022-12-11T14:47:29;1.50;99.90
19728;DHT22;10015;52.530;13.390;2022-12-11T14:52:41;1.50;99.90
19728;DHT22;10015;52.530;13.390;2022-12-11T14:55:19;1.50;99.90
19728;DHT22;10015;52.530;13.390;2022-12-11T14:57:49;1.50;99.90
19728;DHT22;10015;52.530;13.390;2022-12-11T15:00:24;1.50;99.90
19728;DHT22;10015;52.530;13.390;2022-12-11T15:05:26;1.50;99.90
19728;DHT22;10015;52.530;13.390;2022-12-11T15:10:41;1.40;99.90
19728;DHT22;10015;52.530;13.390;2022-12-11T15:13:23;1.50;99.90
19728;DHT22;10015;52.530;13.390;2022-12-11T15:15:50;1.40;99.90
19728;DHT22;10015;52.530;13.390;2022-12-11T15:18:30;1.40;99.90
19728;DHT22;10015;52.530;13.390;2022-12-11T15:21:00;1.50;99.90
19728;DHT22;10015;52.530;13.390;2022-12-11T15:23:28;1.50;99.90
19728;DHT22;10015;52.530;13.390;2022-12-11T15:25:57;1.50;99.90
19728;DHT22;10015;52.530;13.390;2022-12-11T15:28:35;1.60;99.90
19728;DHT22;10015;52.530;13.390;2022-12-11T15:31:26;1.50;99.90
19728;DHT22;10015;52.530;13.390;2022-12-11T15:33:53;1.50;99.90
19728;DHT22;10015;52.530;13.390;2022-12-11T15:36:39;1.40;99.90
19728;DHT22;10015;52.530;13.390;2022-12-11T15:39:05;1.40;99.90
19728;DHT22;10015;52.530;13.390;2022-12-11T15:41:40;1.40;99.90
19728;DHT22;10015;52.530;13.390;2022-12-11T15:44:15;1.40;99.90
19728;DHT22;10015;52.530;13.390;2022-12-11T15:46:43;1.40;99.90
19728;DHT22;10015;52.530;13.390;2022-12-11T15:49:12;1.50;99.90
19728;DHT22;10015;52.530;13.390;2022-12-11T15:51:39;1.60;99.90
19728;DHT22;10015;52.530;13.390;2022-12-11T15:54:05;1.60;99.90
19728;DHT22;10015;52.530;13.390;2022-12-11T15:56:32;1.60;99.90
19728;DHT22;10015;52.530;13.390;2022-12-11T15:59:03;1.60;99.90
19728;DHT22;10015;52.530;13.390;2022-12-11T16:01:31;1.60;99.90
19728;DHT22;10015;52.530;13.390;2022-12-11T16:03:57;1.60;99.90
19728;DHT22;10015;52.530;13.390;2022-12-11T16:06:23;1.60;99.90
19728;DHT22;10015;52.530;13.390;2022-12-11T16:08:49;1.60;99.90
19728;DHT22;10015;52.530;13.390;2022-12-11T16:11:16;1.60;99.90
19728;DHT22;10015;52.530;13.390;2022-12-11T16:13:44;1.60;99.90
19728;DHT22;10015;52.530;13.390;2022-12-11T16:16:10;1.60;99.90
19728;DHT22;10015;52.530;13.390;2022-12-11T16:18:37;1.60;99.90
19728;DHT22;10015;52.530;13.390;2022-12-11T16:21:04;1.60;99.90
19728;DHT22;10015;52.530;13.390;2022-12-11T16:23:31;1.60;99.90
19728;DHT22;10015;52.530;13.390;2022-12-11T16:25:57;1.60;99.90
19728;DHT22;10015;52.530;13.390;2022-12-11T16:28:23;1.70;99.90
19728;DHT22;10015;52.530;13.390;2022-12-11T16:30:49;1.70;99.90
19728;DHT22;10015;52.530;13.390;2022-12-11T16:33:19;1.70;99.90
19728;DHT22;10015;52.530;13.390;2022-12-11T16:35:45;1.60;99.90
19728;DHT22;10015;52.530;13.390;2022-12-11T16:38:11;1.60;99.90
19728;DHT22;10015;52.530;13.390;2022-12-11T16:40:37;1.50;99.90
19728;DHT22;10015;52.530;13.390;2022-12-11T16:43:03;1.50;99.90
19728;DHT22;10015;52.530;13.390;2022-12-11T16:45:31;1.50;99.90
19728;DHT22;10015;52.530;13.390;2022-12-11T16:47:57;1.50;99.90
19728;DHT22;10015;52.530;13.390;2022-12-11T16:50:23;1.50;99.90
19728;DHT22;10015;52.530;13.390;2022-12-11T16:52:50;1.50;99.90
19728;DHT22;10015;52.530;13.390;2022-12-11T16:55:17;1.60;99.90
19728;DHT22;10015;52.530;13.390;2022-12-11T16:57:47;1.60;99.90
19728;DHT22;10015;52.530;13.390;2022-12-11T17:00:13;1.60;99.90
19728;DHT22;10015;52.530;13.390;2022-12-11T17:02:40;1.60;99.90
19728;DHT22;10015;52.530;13.390;2022-12-11T17:05:06;1.60;99.90
19728;DHT22;10015;52.530;13.390;2022-12-11T17:07:33;1.60;99.90
19728;DHT22;10015;52.530;13.390;2022-12-11T17:10:00;1.50;99.90
19728;DHT22;10015;52.530;13.390;2022-12-11T17:12:28;1.50;99.90
19728;DHT22;10015;52.530;13.390;2022-12-11T17:14:55;1.60;99.90
19728;DHT22;10015;52.530;13.390;2022-12-11T17:17:22;1.60;99.90
19728;DHT22;10015;52.530;13.390;2022-12-11T17:19:48;1.50;99.90
19728;DHT22;10015;52.530;13.390;2022-12-11T17:22:14;1.50;99.90
19728;DHT22;10015;52.530;13.390;2022-12-11T17:24:41;1.40;99.90
19728;DHT22;10015;52.530;13.390;2022-12-11T17:27:07;1.30;99.90
19728;DHT22;10015;52.530;13.390;2022-12-11T17:29:33;1.20;99.90
19728;DHT22;10015;52.530;13.390;2022-12-11T17:31:59;1.20;99.90
19728;DHT22;10015;52.530;13.390;2022-12-11T17:34:28;1.20;99.90
19728;DHT22;10015;52.530;13.390;2022-12-11T17:36:54;1.30;99.90
19728;DHT22;10015;52.530;13.390;2022-12-11T17:39:23;1.30;99.90
19728;DHT22;10015;52.530;13.390;2022-12-11T17:41:50;1.40;99.90
19728;DHT22;10015;52.530;13.390;2022-12-11T17:44:16;1.40;99.90
19728;DHT22;10015;52.530;13.390;2022-12-11T17:46:43;1.50;99.90
19728;DHT22;10015;52.530;13.390;2022-12-11T17:49:09;1.50;99.90
19728;DHT22;10015;52.530;13.390;2022-12-11T17:51:36;1.50;99.90
19728;DHT22;10015;52.530;13.390;2022-12-11T17:54:02;1.50;99.90
19728;DHT22;10015;52.530;13.390;2022-12-11T17:56:29;1.40;99.90
19728;DHT22;10015;52.530;13.390;2022-12-11T17:58:59;1.50;99.90
19728;DHT22;10015;52.530;13.390;2022-12-11T18:01:26;1.50;99.90
19728;DHT22;10015;52.530;13.390;2022-12-11T18:03:52;1.50;99.90
19728;DHT22;10015;52.530;13.390;2022-12-11T18:06:18;1.50;99.90
19728;DHT22;10015;52.530;13.390;2022-12-11T18:08:45;1.50;99.90
19728;DHT22;10015;52.530;13.390;2022-12-11T18:11:14;1.50;99.90
19728;DHT22;10015;52.530;13.390;2022-12-11T18:13:42;1.40;99.90
19728;DHT22;10015;52.530;13.390;2022-12-11T18:16:15;1.30;99.90
19728;DHT22;10015;52.530;13.390;2022-12-11T18:18:42;1.40;99.90
19728;DHT22;10015;52.530;13.390;2022-12-11T18:21:34;1.40;99.90
19728;DHT22;10015;52.530;13.390;2022-12-11T18:24:01;1.30;99.90
19728;DHT22;10015;52.530;13.390;2022-12-11T18:26:28;1.30;99.90
19728;DHT22;10015;52.530;13.390;2022-12-11T18:28:54;1.30;99.90
19728;DHT22;10015;52.530;13.390;2022-12-11T18:31:21;1.40;99.90
19728;DHT22;10015;52.530;13.390;2022-12-11T18:33:48;1.40;99.90
19728;DHT22;10015;52.530;13.390;2022-12-11T18:36:16;1.50;99.90
19728;DHT22;10015;52.530;13.390;2022-12-11T18:38:43;1.50;99.90
19728;DHT22;10015;52.530;13.390;2022-12-11T18:41:11;1.50;99.90
19728;DHT22;10015;52.530;13.390;2022-12-11T18:43:39;1.50;99.90
19728;DHT22;10015;52.530;13.390;2022-12-11T18:46:08;1.60;99.90
19728;DHT22;10015;52.530;13.390;2022-12-11T18:48:34;1.50;99.90
19728;DHT22;10015;52.530;13.390;2022-12-11T18:51:06;1.60;99.90
19728;DHT22;10015;52.530;13.390;2022-12-11T18:53:33;1.60;99.90
19728;DHT22;10015;52.530;13.390;2022-12-11T18:56:03;1.60;99.90
19728;DHT22;10015;52.530;13.390;2022-12-11T18:58:30;1.60;99.90
19728;DHT22;10015;52.530;13.390;2022-12-11T19:00:56;1.50;99.90
19728;DHT22;10015;52.530;13.390;2022-12-11T19:03:22;1.50;99.90
19728;DHT22;10015;52.530;13.390;2022-12-11T19:05:49;1.50;99.90
19728;DHT22;10015;52.530;13.390;2022-12-11T19:08:16;1.30;99.90
19728;DHT22;10015;52.530;13.390;2022-12-11T19:10:43;1.10;99.90
19728;DHT22;10015;52.530;13.390;2022-12-11T19:13:23;1.00;99.90
19728;DHT22;10015;52.530;13.390;2022-12-11T19:16:04;0.90;99.90
19728;DHT22;10015;52.530;13.390;2022-12-11T19:18:40;0.90;99.90
19728;DHT22;10015;52.530;13.390;2022-12-11T19:24:54;0.90;99.90
19728;DHT22;10015;52.530;13.390;2022-12-11T19:45:30;1.20;99.90
19728;DHT22;10015;52.530;13.390;2022-12-11T19:48:50;1.10;99.90
19728;DHT22;10015;52.530;13.390;2022-12-11T19:51:42;1.20;99.90
19728;DHT22;10015;52.530;13.390;2022-12-11T19:58:37;1.20;99.90
19728;DHT22;10015;52.530;13.390;2022-12-11T20:01:56;1.20;99.90
19728;DHT22;10015;52.530;13.390;2022-12-11T20:04:23;1.20;99.90
19728;DHT22;10015;52.530;13.390;2022-12-11T20:06:52;1.20;99.90
19728;DHT22;10015;52.530;13.390;2022-12-11T20:09:20;1.30;99.90
19728;DHT22;10015;52.530;13.390;2022-12-11T20:11:57;1.30;99.90
19728;DHT22;10015;52.530;13.390;2022-12-11T20:14:25;1.20;99.90
19728;DHT22;10015;52.530;13.390;2022-12-11T20:16:54;1.10;99.90
19728;DHT22;10015;52.530;13.390;2022-12-11T20:19:34;1.00;99.90
19728;DHT22;10015;52.530;13.390;2022-12-11T20:22:05;1.10;99.90
19728;DHT22;10015;52.530;13.390;2022-12-11T20:24:46;1.20;99.90
19728;DHT22;10015;52.530;13.390;2022-12-11T20:27:21;1.20;99.90
19728;DHT22;10015;52.530;13.390;2022-12-11T20:34:13;1.20;99.90
19728;DHT22;10015;52.530;13.390;2022-12-11T20:37:59;1.20;99.90
19728;DHT22;10015;52.530;13.390;2022-12-11T20:45:49;1.20;99.90
19728;DHT22;10015;52.530;13.390;2022-12-11T20:57:37;1.20;99.90
19728;DHT22;10015;52.530;13.390;2022-12-11T21:13:17;1.50;99.90
19728;DHT22;10015;52.530;13.390;2022-12-11T21:17:31;1.30;99.90
19728;DHT22;10015;52.530;13.390;2022-12-11T21:21:05;1.40;99.90
19728;DHT22;10015;52.530;13.390;2022-12-11T21:47:04;1.40;99.90
19728;DHT22;10015;52.530;13.390;2022-12-11T21:50:47;1.30;99.90
19728;DHT22;10015;52.530;13.390;2022-12-11T21:53:26;1.20;99.90
19728;DHT22;10015;52.530;13.390;2022-12-11T21:56:04;1.30;99.90
19728;DHT22;10015;52.530;13.390;2022-12-11T21:58:31;1.30;99.90
19728;DHT22;10015;52.530;13.390;2022-12-11T22:00:57;1.30;99.90
19728;DHT22;10015;52.530;13.390;2022-12-11T22:03:23;1.30;99.90
19728;DHT22;10015;52.530;13.390;2022-12-11T22:05:50;1.30;99.90
19728;DHT22;10015;52.530;13.390;2022-12-11T22:08:16;1.20;99.90
19728;DHT22;10015;52.530;13.390;2022-12-11T22:10:42;1.10;99.90
19728;DHT22;10015;52.530;13.390;2022-12-11T22:13:08;1.20;99.90
19728;DHT22;10015;52.530;13.390;2022-12-11T22:15:34;1.20;99.90
19728;DHT22;10015;52.530;13.390;2022-12-11T22:18:00;1.30;99.90
19728;DHT22;10015;52.530;13.390;2022-12-11T22:20:26;1.20;99.90
19728;DHT22;10015;52.530;13.390;2022-12-11T22:22:53;1.10;99.90
19728;DHT22;10015;52.530;13.390;2022-12-11T22:25:19;1.10;99.90
19728;DHT22;10015;52.530;13.390;2022-12-11T22:27:45;1.00;99.90
19728;DHT22;10015;52.530;13.390;2022-12-11T22:30:12;1.00;99.90
19728;DHT22;10015;52.530;13.390;2022-12-11T22:32:38;1.10;99.90
19728;DHT22;10015;52.530;13.390;2022-12-11T22:35:06;1.00;99.90
19728;DHT22;10015;52.530;13.390;2022-12-11T22:37:32;1.00;99.90
19728;DHT22;10015;52.530;13.390;2022-12-11T22:39:58;1.10;99.90
19728;DHT22;10015;52.530;13.390;2022-12-11T22:42:24;1.20;99.90
19728;DHT22;10015;52.530;13.390;2022-12-11T22:44:50;1.20;99.90
19728;DHT22;10015;52.530;13.390;2022-12-11T22:47:17;1.20;99.90
19728;DHT22;10015;52.530;13.390;2022-12-11T22:49:43;1.30;99.90
19728;DHT22;10015;52.530;13.390;2022-12-11T22:52:09;1.20;99.90
19728;DHT22;10015;52.530;13.390;2022-12-11T22:54:38;1.10;99.90
19728;DHT22;10015;52.530;13.390;2022-12-11T22:57:04;1.20;99.90
19728;DHT22;10015;52.530;13.390;2022-12-11T22:59:30;1.20;99.90
19728;DHT22;10015;52.530;13.390;2022-12-11T23:01:56;1.10;99.90
19728;DHT22;10015;52.530;13.390;2022-12-11T23:04:22;1.20;99.90
19728;DHT22;10015;52.530;13.390;2022-12-11T23:06:48;1.20;99.90
19728;DHT22;10015;52.530;13.390;2022-12-11T23:09:14;1.20;99.90
19728;DHT22;10015;52.530;13.390;2022-12-11T23:11:43;1.30;99.90
19728;DHT22;10015;52.530;13.390;2022-12-11T23:14:13;1.30;99.90
19728;DHT22;10015;52.530;13.390;2022-12-11T23:16:40;1.40;99.90
19728;DHT22;10015;52.530;13.390;2022-12-11T23:19:07;1.40;99.90
19728;DHT22;10015;52.530;13.390;2022-12-11T23:21:33;1.40;99.90
19728;DHT22;10015;52.530;13.390;2022-12-11T23:23:59;1.50;99.90
19728;DHT22;10015;52.530;13.390;2022-12-11T23:26:26;1.40;99.90
19728;DHT22;10015;52.530;13.390;2022-12-11T23:28:54;1.50;99.90
19728;DHT22;10015;52.530;13.390;2022-12-11T23:31:21;1.50;99.90
19728;DHT22;10015;52.530;13.390;2022-12-11T23:33:47;1.50;99.90
19728;DHT22;10015;52.530;13.390;2022-12-11T23:36:17;1.50;99.90
19728;DHT22;10015;52.530;13.390;2022-12-11T23:38:43;1.60;99.90
19728;DHT22;10015;52.530;13.390;2022-12-11T23:41:11;1.60;99.90
19728;DHT22;10015;52.530;13.390;2022-12-11T23:43:37;1.50;99.90
19728;DHT22;10015;52.530;13.390;2022-12-11T23:46:07;1.50;99.90
19728;DHT22;10015;52.530;13.390;2022-12-11T23:48:33;1.40;99.90
19728;DHT22;10015;52.530;13.390;2022-12-11T23:51:00;1.30;99.90
19728;DHT22;10015;52.530;13.390;2022-12-11T23:53:27;1.30;99.90
19728;DHT22;10015;52.530;13.390;2022-12-11T23:55:53;1.20;99.90
19728;DHT22;10015;52.530;13.390;2022-12-11T23:58:19;1.20;99.90
